createdAt,value
2023-01-13T00:00:07.085Z,69.34
2023-01-13T00:02:07.176Z,69.05
2023-01-13T00:05:07.335Z,69.31
2023-01-13T00:07:07.885Z,68.77
2023-01-13T00:10:07.284Z,68.5
2023-01-13T00:12:07.331Z,68.33
2023-01-13T00:16:07.383Z,68.58
2023-01-13T00:19:07.008Z,68.29
2023-01-13T00:21:07.788Z,68.02
2023-01-13T00:24:07.004Z,68.23
2023-01-13T00:27:07.003Z,68.52
2023-01-13T00:30:07.465Z,68.71
2023-01-13T00:32:07.695Z,69.28
2023-01-13T00:36:06.048Z,69.42
2023-01-13T00:38:07.011Z,69.21
2023-01-13T00:41:07.530Z,69.4
2023-01-13T00:44:07.644Z,69.62
2023-01-13T00:47:07.068Z,69.63
2023-01-13T00:49:07.603Z,69.76
2023-01-13T00:52:07.402Z,69.05
2023-01-13T00:55:07.384Z,69.47
2023-01-13T00:58:07.511Z,69.19
2023-01-13T01:01:07.559Z,69.8
2023-01-13T01:04:07.891Z,70.34
2023-01-13T01:07:06.075Z,70.11
2023-01-13T01:09:07.026Z,70.91
2023-01-13T01:11:07.449Z,71.03
2023-01-13T01:13:07.480Z,71.56
2023-01-13T01:16:07.148Z,71.57
2023-01-13T01:19:07.024Z,71.47
2023-01-13T01:21:10.487Z,71.52
2023-01-13T01:24:06.991Z,71.41
2023-01-13T01:26:07.409Z,71.62
2023-01-13T01:30:07.356Z,71.28
2023-01-13T01:33:07.037Z,71.42
2023-01-13T01:35:07.447Z,71.3
2023-01-13T01:37:07.579Z,71
2023-01-13T01:40:07.179Z,70.85
2023-01-13T01:43:07.063Z,70.31
2023-01-13T01:46:07.079Z,70
2023-01-13T01:49:07.053Z,70.12
2023-01-13T01:52:08.032Z,70.59
2023-01-13T01:54:06.990Z,70.44
2023-01-13T01:57:07.000Z,70.41
2023-01-13T01:59:07.441Z,70.45
2023-01-13T02:02:07.057Z,70.39
2023-01-13T02:05:07.067Z,70.71
2023-01-13T02:07:07.556Z,70.96
2023-01-13T02:10:14.231Z,70.63
2023-01-13T02:13:12.652Z,70.82
2023-01-13T02:16:07.020Z,70.32
2023-01-13T02:18:06.995Z,69.88
2023-01-13T02:21:14.062Z,70.05
2023-01-13T02:25:20.132Z,69.65
2023-01-13T02:28:13.667Z,69.5
2023-01-13T02:31:07.028Z,69.73
2023-01-13T02:33:07.793Z,69.54
2023-01-13T02:36:07.834Z,69.79
2023-01-13T02:38:13.683Z,69.56
2023-01-13T02:41:07.819Z,69.81
2023-01-13T02:44:07.009Z,69.54
2023-01-13T02:46:07.878Z,69.89
2023-01-13T02:49:14.417Z,69.58
2023-01-13T02:52:07.012Z,69.88
2023-01-13T02:54:07.268Z,70.09
2023-01-13T02:57:06.976Z,70.16
2023-01-13T02:59:07.602Z,70.2
2023-01-13T03:02:08.083Z,69.96
2023-01-13T03:05:07.650Z,70.19
2023-01-13T03:08:07.028Z,69.77
2023-01-13T03:11:07.575Z,69.61
2023-01-13T03:14:13.575Z,69.74
2023-01-13T03:16:13.618Z,69.7
2023-01-13T03:19:07.542Z,69.62
2023-01-13T03:21:07.772Z,69.57
2023-01-13T03:24:13.816Z,69.43
2023-01-13T03:28:20.737Z,70
2023-01-13T03:31:21.057Z,69.83
2023-01-13T03:33:21.045Z,70.32
2023-01-13T03:35:21.158Z,70.35
2023-01-13T03:38:21.036Z,70.3
2023-01-13T03:40:21.049Z,70.47
2023-01-13T03:42:21.102Z,70.1
2023-01-13T03:44:41.611Z,70.65
2023-01-13T03:47:21.061Z,70.22
2023-01-13T03:49:21.059Z,70.38
2023-01-13T03:51:21.069Z,70.38
2023-01-13T03:54:21.015Z,70.16
2023-01-13T03:56:52.149Z,69.98
2023-01-13T03:59:21.062Z,70.18
2023-01-13T04:02:10.892Z,70.18
2023-01-13T04:04:10.826Z,70.23
2023-01-13T04:07:10.764Z,70.14
2023-01-13T04:09:10.776Z,70.06
2023-01-13T04:12:10.743Z,70.18
2023-01-13T04:14:10.934Z,70.57
2023-01-13T04:17:10.805Z,70.11
2023-01-13T04:21:10.746Z,70.04
2023-01-13T04:24:10.737Z,69.96
2023-01-13T04:26:10.767Z,69.72
2023-01-13T04:29:10.777Z,69.75
2023-01-13T04:32:10.751Z,69.34
2023-01-13T04:35:10.754Z,68.91
2023-01-13T04:38:10.793Z,69.27
2023-01-13T04:41:10.736Z,69.01
2023-01-13T04:43:10.757Z,69.15
2023-01-13T04:45:10.765Z,69.26
2023-01-13T04:49:10.756Z,68.98
2023-01-13T04:51:21.043Z,68.95
2023-01-13T04:54:10.746Z,69.05
2023-01-13T04:56:10.758Z,68.97
2023-01-13T04:59:10.742Z,69.01
2023-01-13T05:01:10.888Z,68.76
2023-01-13T05:04:10.755Z,68.58
2023-01-13T05:08:10.743Z,68.07
2023-01-13T05:10:22.995Z,68.29
2023-01-13T05:12:31.347Z,68.48
2023-01-13T05:15:21.059Z,68.55
2023-01-13T05:18:10.766Z,68.53
2023-01-13T05:20:10.737Z,68.55
2023-01-13T05:23:10.742Z,68.49
2023-01-13T05:25:10.773Z,68.76
2023-01-13T05:27:10.831Z,68.5
2023-01-13T05:30:10.777Z,68.19
2023-01-13T05:33:10.781Z,67.85
2023-01-13T05:35:10.748Z,67.92
2023-01-13T05:37:10.740Z,67.86
2023-01-13T05:40:10.741Z,68.12
2023-01-13T05:44:10.750Z,67.93
2023-01-13T05:46:10.800Z,68.14
2023-01-13T05:49:10.755Z,67.82
2023-01-13T05:52:21.038Z,67.8
2023-01-13T05:55:05.709Z,68.16
2023-01-13T05:57:10.788Z,68.67
2023-01-13T06:00:10.756Z,68.52
2023-01-13T06:02:10.767Z,69.23
2023-01-13T06:04:10.799Z,70.93
2023-01-13T06:06:21.053Z,72.44
2023-01-13T06:09:10.753Z,72.94
2023-01-13T06:12:10.768Z,73.39
2023-01-13T06:15:10.763Z,73.54
2023-01-13T06:17:10.754Z,73.43
2023-01-13T06:20:10.745Z,73.83
2023-01-13T06:22:10.765Z,73.9
2023-01-13T06:25:10.757Z,74.4
2023-01-13T06:28:10.790Z,74.48
2023-01-13T06:30:21.163Z,74.83
2023-01-13T06:33:10.782Z,74.93
2023-01-13T06:36:10.756Z,75.57
2023-01-13T06:39:10.743Z,75.07
2023-01-13T06:41:10.766Z,75.16
2023-01-13T06:44:10.764Z,74.31
2023-01-13T06:46:10.754Z,74.38
2023-01-13T06:48:10.839Z,74.82
2023-01-13T06:52:10.752Z,74.46
2023-01-13T06:55:21.029Z,73.61
2023-01-13T06:58:10.761Z,73.73
2023-01-13T07:00:10.846Z,73.91
2023-01-13T07:03:10.763Z,74.29
2023-01-13T07:05:10.755Z,74.74
2023-01-13T07:07:31.316Z,74.3
2023-01-13T07:10:10.746Z,73.39
2023-01-13T07:12:10.755Z,73.41
2023-01-13T07:16:10.868Z,73.93
2023-01-13T07:19:22.191Z,73.45
2023-01-13T07:22:31.314Z,73.47
2023-01-13T07:25:21.053Z,73.43
2023-01-13T07:27:21.072Z,72.95
2023-01-13T07:29:31.334Z,73.24
2023-01-13T07:31:34.752Z,73.13
2023-01-13T07:34:31.372Z,72.71
2023-01-13T07:37:10.750Z,72.11
2023-01-13T07:40:10.761Z,71.47
2023-01-13T07:42:10.743Z,72.04
2023-01-13T07:44:10.774Z,71.89
2023-01-13T07:47:10.767Z,71.95
2023-01-13T07:50:10.794Z,71.33
2023-01-13T07:52:21.042Z,71.18
2023-01-13T07:54:23.284Z,71.83
2023-01-13T07:57:21.054Z,71.38
2023-01-13T08:01:10.910Z,71.06
2023-01-13T08:05:10.743Z,70.76
2023-01-13T08:07:21.050Z,70.66
2023-01-13T08:12:10.761Z,69.58
2023-01-13T08:14:10.767Z,69.86
2023-01-13T08:16:21.054Z,70.09
2023-01-13T08:18:21.064Z,69.43
2023-01-13T08:21:10.766Z,69.42
2023-01-13T08:24:10.735Z,69.28
2023-01-13T08:26:10.736Z,69.22
2023-01-13T08:28:10.763Z,68.97
2023-01-13T08:30:21.057Z,69.17
2023-01-13T08:32:31.332Z,69.14
2023-01-13T08:34:33.034Z,69.02
2023-01-13T08:37:31.321Z,68.52
2023-01-13T08:40:10.798Z,68.67
2023-01-13T08:44:10.814Z,68.68
2023-01-13T08:46:21.193Z,68.52
2023-01-13T08:48:31.709Z,68.01
2023-01-13T08:51:31.325Z,68.43
2023-01-13T08:53:41.610Z,68.26
2023-01-13T08:56:21.051Z,67.85
2023-01-13T08:58:21.059Z,67.92
2023-01-13T09:00:21.225Z,67.78
2023-01-13T09:03:32.390Z,67.24
2023-01-13T09:05:43.314Z,67.52
2023-01-13T09:08:31.326Z,67.51
2023-01-13T09:11:10.796Z,67.4
2023-01-13T09:15:10.757Z,67.09
2023-01-13T09:17:10.811Z,66.8
2023-01-13T09:19:31.323Z,67.21
2023-01-13T09:22:10.757Z,67.07
2023-01-13T09:24:10.767Z,67.11
2023-01-13T09:26:10.787Z,67.05
2023-01-13T09:29:21.041Z,66.28
2023-01-13T09:31:21.205Z,66.29
2023-01-13T09:34:31.306Z,65.96
2023-01-13T09:37:31.355Z,65.86
2023-01-13T09:40:21.043Z,64.45
2023-01-13T09:42:21.096Z,64.78
2023-01-13T09:45:10.782Z,64.81
2023-01-13T09:49:10.748Z,64.49
2023-01-13T09:51:22.070Z,64.05
2023-01-13T09:54:21.046Z,64.32
2023-01-13T09:56:21.028Z,64.05
2023-01-13T09:58:31.333Z,64.23
2023-01-13T10:01:21.186Z,64.07
2023-01-13T10:04:41.646Z,63.82
2023-01-13T10:07:21.791Z,64.59
2023-01-13T10:09:21.131Z,64.4
2023-01-13T10:11:31.334Z,63.99
2023-01-13T10:13:34.725Z,64.08
2023-01-13T10:16:31.461Z,64.21
2023-01-13T10:19:10.774Z,64.19
2023-01-13T10:21:10.767Z,63.74
2023-01-13T10:23:10.801Z,64.12
2023-01-13T10:26:10.788Z,63.37
2023-01-13T10:33:11.230Z,62.97
2023-01-13T10:35:22.063Z,62.81
2023-01-13T10:38:21.081Z,62.68
2023-01-13T10:41:41.703Z,62.29
2023-01-13T10:44:21.057Z,61.7
2023-01-13T10:46:21.135Z,60.9
2023-01-13T10:48:41.648Z,61.31
2023-01-13T10:51:31.353Z,60.65
2023-01-13T10:53:31.300Z,60.76
2023-01-13T10:57:10.786Z,60.44
2023-01-13T10:59:10.747Z,60.2
2023-01-13T11:02:25.547Z,60.04
2023-01-13T11:04:21.076Z,59.98
2023-01-13T11:07:10.780Z,59.09
2023-01-13T11:09:10.807Z,58.82
2023-01-13T11:13:10.765Z,59.34
2023-01-13T11:15:21.063Z,58.53
2023-01-13T11:18:10.840Z,58.06
2023-01-13T11:21:10.769Z,58.21
2023-01-13T11:25:10.762Z,58.39
2023-01-13T11:27:31.346Z,58.09
2023-01-13T11:29:31.367Z,57.74
2023-01-13T11:33:10.806Z,56.88
2023-01-13T11:35:10.777Z,57.14
2023-01-13T11:37:31.435Z,57.07
2023-01-13T11:40:10.765Z,57.21
2023-01-13T11:43:10.753Z,56.15
2023-01-13T11:46:10.767Z,55.97
2023-01-13T11:48:21.046Z,56.47
2023-01-13T11:51:10.754Z,56.09
2023-01-13T11:54:10.787Z,56.77
2023-01-13T11:56:10.775Z,57.19
2023-01-13T11:58:21.038Z,57.19
2023-01-13T12:00:21.047Z,57.98
2023-01-13T12:04:10.759Z,59.98
2023-01-13T12:06:10.818Z,62.65
2023-01-13T12:08:21.035Z,63.03
2023-01-13T12:10:21.057Z,64.06
2023-01-13T12:14:10.850Z,63.29
2023-01-13T12:17:10.817Z,64.45
2023-01-13T12:19:21.041Z,65.89
2023-01-13T12:22:31.360Z,63.71
2023-01-13T12:25:21.081Z,62.88
2023-01-13T12:28:51.988Z,60.5
2023-01-13T12:31:03.598Z,60.63
2023-01-13T12:33:21.111Z,59.94
2023-01-13T12:36:03.776Z,59.68
2023-01-13T12:38:10.833Z,60.15
2023-01-13T12:41:21.049Z,57.31
2023-01-13T12:43:21.049Z,57.52
2023-01-13T12:46:10.822Z,57.01
2023-01-13T12:49:10.827Z,57.13
2023-01-13T12:52:10.790Z,54.98
2023-01-13T12:54:21.057Z,55.32
2023-01-13T12:57:41.631Z,54.28
2023-01-13T13:00:21.086Z,53.74
2023-01-13T13:02:21.110Z,52.78
2023-01-13T13:05:10.760Z,53.66
2023-01-13T13:07:10.764Z,54.22
2023-01-13T13:09:10.761Z,54.44
2023-01-13T13:11:31.345Z,54.51
2023-01-13T13:14:10.790Z,53.52
2023-01-13T13:17:10.789Z,53.26
2023-01-13T13:20:10.788Z,53.49
2023-01-13T13:22:21.059Z,52.31
2023-01-13T13:24:31.352Z,51.5
2023-01-13T13:27:51.942Z,51.21
2023-01-13T13:30:03.538Z,51.66
2023-01-13T13:32:21.027Z,51.4
2023-01-13T13:35:10.755Z,51.07
2023-01-13T13:39:10.786Z,51.9
2023-01-13T13:41:21.065Z,53.46
2023-01-13T13:43:31.373Z,55.45
2023-01-13T13:47:10.765Z,58.97
2023-01-13T13:49:10.756Z,58.92
2023-01-13T13:51:21.060Z,59.4
2023-01-13T13:53:21.089Z,61.12
2023-01-13T13:56:10.794Z,62.39
2023-01-13T14:00:10.769Z,61.24
2023-01-13T14:02:10.948Z,62.01
2023-01-13T14:05:10.779Z,63.67
2023-01-13T14:09:10.736Z,60.81
2023-01-13T14:13:10.724Z,58.95
2023-01-13T14:15:10.717Z,57.65
2023-01-13T14:17:31.340Z,58.15
2023-01-13T14:20:21.046Z,57.09
2023-01-13T14:23:10.710Z,55.6
2023-01-13T14:27:10.713Z,55.14
2023-01-13T14:29:20.977Z,54.65
2023-01-13T14:31:21.083Z,54.91
2023-01-13T14:34:28.777Z,54.34
2023-01-13T14:37:10.693Z,52.98
2023-01-13T14:39:21.128Z,52.1
2023-01-13T14:42:10.684Z,52.9
2023-01-13T14:44:10.751Z,52.97
2023-01-13T14:46:32.983Z,53.1
2023-01-13T14:49:20.961Z,51.8
2023-01-13T14:52:31.266Z,50.84
2023-01-13T14:55:21.011Z,50.33
2023-01-13T14:58:10.703Z,51.01
2023-01-13T15:01:10.732Z,51.51
2023-01-13T15:04:10.718Z,51.35
2023-01-13T15:06:21.071Z,51.17
2023-01-13T15:09:10.697Z,51.69
2023-01-13T15:14:22.100Z,51.85
2023-01-13T15:17:20.969Z,51.14
2023-01-13T15:19:31.345Z,52.04
2023-01-13T15:22:20.979Z,51.67
2023-01-13T15:25:10.700Z,51.98
2023-01-13T15:27:14.543Z,52.56
2023-01-13T15:30:10.769Z,53.2
2023-01-13T15:33:10.711Z,53.58
2023-01-13T15:36:10.689Z,55.13
2023-01-13T15:39:10.688Z,55.36
2023-01-13T15:42:10.703Z,55.56
2023-01-13T15:44:21.018Z,55.19
2023-01-13T15:47:10.725Z,54.35
2023-01-13T15:49:32.956Z,55.07
2023-01-13T15:52:20.998Z,55.33
2023-01-13T15:55:31.252Z,55.53
2023-01-13T15:58:21.002Z,55.62
2023-01-13T16:00:21.023Z,55.66
2023-01-13T16:03:10.776Z,55.71
2023-01-13T16:05:32.997Z,56.08
2023-01-13T16:08:10.706Z,56.86
2023-01-13T16:10:21.035Z,57.9
2023-01-13T16:13:10.691Z,57.21
2023-01-13T16:16:10.785Z,57.42
2023-01-13T16:19:10.726Z,60.6
2023-01-13T16:22:10.744Z,59.86
2023-01-13T16:25:10.747Z,59.58
2023-01-13T16:27:20.199Z,59.5
2023-01-13T16:30:10.782Z,59.09
2023-01-13T16:34:10.797Z,58.83
2023-01-13T16:37:10.769Z,59.16
2023-01-13T16:39:10.837Z,59.12
2023-01-13T16:41:21.100Z,58.6
2023-01-13T16:44:10.821Z,58.7
2023-01-13T16:47:10.735Z,58.64
2023-01-13T16:49:10.794Z,58.71
2023-01-13T16:52:10.780Z,59.14
2023-01-13T16:55:10.793Z,59.01
2023-01-13T16:58:10.770Z,59.1
2023-01-13T17:00:10.795Z,58.85
2023-01-13T17:02:10.786Z,58.6
2023-01-13T17:05:10.809Z,58.91
2023-01-13T17:07:10.811Z,58.89
2023-01-13T17:10:10.764Z,58.91
2023-01-13T17:12:10.832Z,59.3
2023-01-13T17:14:18.040Z,59.51
2023-01-13T17:18:10.775Z,59.4
2023-01-13T17:20:10.771Z,59.26
2023-01-13T17:23:10.787Z,59.45
2023-01-13T17:25:10.875Z,59.17
2023-01-13T17:28:10.786Z,59.37
2023-01-13T17:34:10.825Z,59.53
2023-01-13T17:36:10.904Z,59.05
2023-01-13T17:39:10.768Z,59.1
2023-01-13T17:41:10.771Z,58.92
2023-01-13T17:43:10.824Z,58.44
2023-01-13T17:46:10.868Z,58.41
2023-01-13T17:48:10.792Z,58.3
2023-01-13T17:51:10.781Z,58.45
2023-01-13T17:53:21.090Z,58.77
2023-01-13T17:56:10.776Z,58.28
2023-01-13T17:59:10.813Z,58.94
2023-01-13T18:01:10.937Z,58.6
2023-01-13T18:04:10.784Z,58.51
2023-01-13T18:08:10.862Z,57.99
2023-01-13T18:12:10.764Z,57.76
2023-01-13T18:14:21.053Z,57.83
2023-01-13T18:17:10.783Z,57.88
2023-01-13T18:20:10.758Z,58.02
2023-01-13T18:22:10.780Z,58.14
2023-01-13T18:24:10.823Z,58.26
2023-01-13T18:27:10.791Z,58.27
2023-01-13T18:30:11.148Z,58.16
2023-01-13T18:33:10.780Z,58.28
2023-01-13T18:36:10.768Z,58.18
2023-01-13T18:38:10.821Z,58.48
2023-01-13T18:41:10.825Z,58.57
2023-01-13T18:43:21.081Z,58.77
2023-01-13T18:46:21.223Z,58.95
2023-01-13T18:48:31.316Z,58.87
2023-01-13T18:50:33.042Z,58.73
2023-01-13T18:53:31.329Z,58.94
2023-01-13T18:56:10.754Z,59.41
2023-01-13T18:59:10.805Z,59.26
2023-01-13T19:02:10.768Z,59.13
2023-01-13T19:04:10.774Z,58.91
2023-01-13T19:06:10.785Z,59.03
2023-01-13T19:09:10.778Z,59.17
2023-01-13T19:11:10.778Z,59.32
2023-01-13T19:14:10.796Z,59.05
2023-01-13T19:16:10.828Z,59.08
2023-01-13T19:19:10.789Z,59.1
2023-01-13T19:22:10.801Z,59.37
2023-01-13T19:24:10.821Z,59.17
2023-01-13T19:26:10.802Z,59.72
2023-01-13T19:29:10.805Z,59.72
2023-01-13T19:31:11.010Z,59.87
2023-01-13T19:34:10.790Z,59.82
2023-01-13T19:37:10.794Z,59.92
2023-01-13T19:39:21.087Z,60.16
2023-01-13T19:41:21.076Z,60.09
2023-01-13T19:44:10.821Z,59.82
2023-01-13T19:47:10.775Z,60
2023-01-13T19:50:10.762Z,60.67
2023-01-13T19:52:10.792Z,60.69
2023-01-13T19:55:10.854Z,61.46
2023-01-13T19:58:10.795Z,62.31
2023-01-13T20:01:10.927Z,62.64
2023-01-13T20:04:10.805Z,61.86
2023-01-13T20:06:10.920Z,62.92
2023-01-13T20:09:10.935Z,63.23
2023-01-13T20:12:10.756Z,63.28
2023-01-13T20:14:10.797Z,63.15
2023-01-13T20:16:10.878Z,62.57
2023-01-13T20:18:10.778Z,62.49
2023-01-13T20:21:10.801Z,61.32
2023-01-13T20:24:10.805Z,62.04
2023-01-13T20:28:10.810Z,61.89
2023-01-13T20:32:10.808Z,62.17
2023-01-13T20:34:10.821Z,61.79
2023-01-13T20:36:10.907Z,61.96
2023-01-13T20:38:21.052Z,61.56
2023-01-13T20:41:10.821Z,61.75
2023-01-13T20:44:10.867Z,61.62
2023-01-13T20:47:10.794Z,61.56
2023-01-13T20:50:10.791Z,61.7
2023-01-13T20:52:10.870Z,61.9
2023-01-13T20:56:10.817Z,61.63
2023-01-13T20:59:21.101Z,61.25
2023-01-13T21:02:10.782Z,61.29
2023-01-13T21:05:10.812Z,61.12
2023-01-13T21:08:10.795Z,61.05
2023-01-13T21:11:10.783Z,61.49
2023-01-13T21:14:10.802Z,61.15
2023-01-13T21:17:10.773Z,61.1
2023-01-13T21:19:10.897Z,61.05
2023-01-13T21:22:10.788Z,60.8
2023-01-13T21:25:10.791Z,61.43
2023-01-13T21:27:10.892Z,61.37
2023-01-13T21:30:10.863Z,62.43
2023-01-13T21:33:10.795Z,61.79
2023-01-13T21:35:10.819Z,62.1
2023-01-13T21:38:10.836Z,61.71
2023-01-13T21:42:10.783Z,61.39
2023-01-13T21:44:21.196Z,61.5
2023-01-13T21:47:10.774Z,61.48
2023-01-13T21:50:10.798Z,61.61
2023-01-13T21:54:10.812Z,61.75
2023-01-13T21:56:21.067Z,61.65
2023-01-13T21:59:41.732Z,61.39
2023-01-13T22:02:23.516Z,61.33
2023-01-13T22:05:10.806Z,61.4
2023-01-13T22:07:33.131Z,61.12
2023-01-13T22:09:36.497Z,60.96
2023-01-13T22:12:31.377Z,61.33
2023-01-13T22:15:10.800Z,60.82
2023-01-13T22:17:10.822Z,60.81
2023-01-13T22:20:10.783Z,60.69
2023-01-13T22:22:10.873Z,60.42
2023-01-13T22:24:10.819Z,60.65
2023-01-13T22:27:10.762Z,59.86
2023-01-13T22:29:10.815Z,60.39
2023-01-13T22:32:10.786Z,60.07
2023-01-13T22:34:10.807Z,60.19
2023-01-13T22:37:10.840Z,60.01
2023-01-13T22:40:10.796Z,59.88
2023-01-13T22:44:10.789Z,59.48
2023-01-13T22:46:31.349Z,59.56
2023-01-13T22:49:10.800Z,59.63
2023-01-13T22:51:33.066Z,59.65
2023-01-13T22:54:21.110Z,60.04
2023-01-13T22:57:10.760Z,59.71
2023-01-13T23:00:10.818Z,59.63
2023-01-13T23:03:21.073Z,59.69
2023-01-13T23:06:10.794Z,60.19
2023-01-13T23:08:10.804Z,59.88
2023-01-13T23:12:10.800Z,59.56
2023-01-13T23:14:21.091Z,59.66
2023-01-13T23:17:10.787Z,59.7
2023-01-13T23:20:10.830Z,59.75
2023-01-13T23:22:10.792Z,59.85
2023-01-13T23:25:21.045Z,59.99
2023-01-13T23:28:10.783Z,60
2023-01-13T23:30:10.815Z,59.83
2023-01-13T23:32:10.787Z,60.09
2023-01-13T23:36:10.775Z,59.69
2023-01-13T23:38:21.078Z,58.73
2023-01-13T23:41:10.761Z,59.08
2023-01-13T23:44:10.772Z,59.37
2023-01-13T23:46:10.804Z,59.44
2023-01-13T23:49:21.093Z,59.31
2023-01-13T23:52:10.771Z,59.34
2023-01-13T23:56:10.825Z,59.12
2023-01-13T23:58:10.770Z,59.45
